sensor_id;sensor_type;location;lat;lon;timestamp;P1;durP1;ratioP1;P2;durP2;ratioP2
15833;SDS011;8017;50.812;4.934;2022-07-10T00:01:47;5.13;;;2.40;;
15833;SDS011;8017;50.812;4.934;2022-07-10T00:04:49;6.87;;;2.50;;
15833;SDS011;8017;50.812;4.934;2022-07-10T00:07:51;4.97;;;2.27;;
15833;SDS011;8017;50.812;4.934;2022-07-10T00:10:53;5.53;;;2.30;;
15833;SDS011;8017;50.812;4.934;2022-07-10T00:13:56;6.27;;;2.17;;
15833;SDS011;8017;50.812;4.934;2022-07-10T00:16:58;6.00;;;2.37;;
15833;SDS011;8017;50.812;4.934;2022-07-10T00:20:00;9.97;;;2.50;;
15833;SDS011;8017;50.812;4.934;2022-07-10T00:23:02;5.33;;;2.40;;
15833;SDS011;8017;50.812;4.934;2022-07-10T00:26:04;5.90;;;2.40;;
15833;SDS011;8017;50.812;4.934;2022-07-10T00:29:07;6.53;;;2.60;;
15833;SDS011;8017;50.812;4.934;2022-07-10T00:32:09;7.17;;;2.60;;
15833;SDS011;8017;50.812;4.934;2022-07-10T00:35:11;4.37;;;2.20;;
15833;SDS011;8017;50.812;4.934;2022-07-10T00:38:13;5.93;;;2.30;;
15833;SDS011;8017;50.812;4.934;2022-07-10T00:41:17;5.03;;;2.60;;
15833;SDS011;8017;50.812;4.934;2022-07-10T00:44:20;7.80;;;2.13;;
15833;SDS011;8017;50.812;4.934;2022-07-10T00:47:22;7.87;;;2.83;;
15833;SDS011;8017;50.812;4.934;2022-07-10T00:50:24;6.97;;;2.50;;
15833;SDS011;8017;50.812;4.934;2022-07-10T00:53:26;4.37;;;2.10;;
15833;SDS011;8017;50.812;4.934;2022-07-10T00:56:28;5.90;;;2.50;;
15833;SDS011;8017;50.812;4.934;2022-07-10T00:59:32;4.60;;;2.50;;
15833;SDS011;8017;50.812;4.934;2022-07-10T01:02:34;5.53;;;2.50;;
15833;SDS011;8017;50.812;4.934;2022-07-10T01:05:36;3.93;;;2.10;;
15833;SDS011;8017;50.812;4.934;2022-07-10T01:08:38;8.07;;;2.33;;
15833;SDS011;8017;50.812;4.934;2022-07-10T01:11:41;4.97;;;2.83;;
15833;SDS011;8017;50.812;4.934;2022-07-10T01:14:44;7.77;;;2.60;;
15833;SDS011;8017;50.812;4.934;2022-07-10T01:17:46;3.50;;;2.30;;
15833;SDS011;8017;50.812;4.934;2022-07-10T01:20:52;7.90;;;2.30;;
15833;SDS011;8017;50.812;4.934;2022-07-10T01:23:54;4.90;;;2.23;;
15833;SDS011;8017;50.812;4.934;2022-07-10T01:26:57;5.27;;;2.27;;
15833;SDS011;8017;50.812;4.934;2022-07-10T01:29:59;4.63;;;2.60;;
15833;SDS011;8017;50.812;4.934;2022-07-10T01:33:01;5.53;;;2.07;;
15833;SDS011;8017;50.812;4.934;2022-07-10T01:36:04;7.63;;;2.60;;
15833;SDS011;8017;50.812;4.934;2022-07-10T01:39:06;3.83;;;2.33;;
15833;SDS011;8017;50.812;4.934;2022-07-10T01:42:08;3.87;;;2.00;;
15833;SDS011;8017;50.812;4.934;2022-07-10T01:45:10;4.23;;;2.10;;
15833;SDS011;8017;50.812;4.934;2022-07-10T01:48:12;6.10;;;2.30;;
15833;SDS011;8017;50.812;4.934;2022-07-10T01:51:15;6.53;;;2.30;;
15833;SDS011;8017;50.812;4.934;2022-07-10T01:54:17;5.57;;;2.30;;
15833;SDS011;8017;50.812;4.934;2022-07-10T01:57:19;4.17;;;2.20;;
15833;SDS011;8017;50.812;4.934;2022-07-10T02:00:21;3.27;;;1.93;;
15833;SDS011;8017;50.812;4.934;2022-07-10T02:03:24;7.80;;;2.53;;
15833;SDS011;8017;50.812;4.934;2022-07-10T02:06:44;9.23;;;2.67;;
15833;SDS011;8017;50.812;4.934;2022-07-10T02:09:46;4.73;;;2.17;;
15833;SDS011;8017;50.812;4.934;2022-07-10T02:12:48;5.13;;;2.60;;
15833;SDS011;8017;50.812;4.934;2022-07-10T02:15:50;5.37;;;2.53;;
15833;SDS011;8017;50.812;4.934;2022-07-10T02:18:52;7.00;;;3.30;;
15833;SDS011;8017;50.812;4.934;2022-07-10T02:21:55;6.43;;;3.07;;
15833;SDS011;8017;50.812;4.934;2022-07-10T02:24:57;5.87;;;3.00;;
15833;SDS011;8017;50.812;4.934;2022-07-10T02:27:59;7.87;;;3.53;;
15833;SDS011;8017;50.812;4.934;2022-07-10T02:31:01;8.77;;;3.30;;
15833;SDS011;8017;50.812;4.934;2022-07-10T02:34:03;6.33;;;3.10;;
15833;SDS011;8017;50.812;4.934;2022-07-10T02:37:06;8.33;;;3.83;;
15833;SDS011;8017;50.812;4.934;2022-07-10T02:40:08;6.33;;;3.40;;
15833;SDS011;8017;50.812;4.934;2022-07-10T02:43:10;6.33;;;3.20;;
15833;SDS011;8017;50.812;4.934;2022-07-10T02:46:12;6.27;;;3.20;;
15833;SDS011;8017;50.812;4.934;2022-07-10T02:49:14;6.67;;;3.13;;
15833;SDS011;8017;50.812;4.934;2022-07-10T02:52:17;6.27;;;3.67;;
15833;SDS011;8017;50.812;4.934;2022-07-10T02:55:19;4.90;;;2.90;;
15833;SDS011;8017;50.812;4.934;2022-07-10T02:58:21;9.20;;;3.40;;
15833;SDS011;8017;50.812;4.934;2022-07-10T03:01:23;4.83;;;3.03;;
15833;SDS011;8017;50.812;4.934;2022-07-10T03:04:25;6.17;;;3.17;;
15833;SDS011;8017;50.812;4.934;2022-07-10T03:07:28;6.60;;;3.13;;
15833;SDS011;8017;50.812;4.934;2022-07-10T03:10:30;8.60;;;3.80;;
15833;SDS011;8017;50.812;4.934;2022-07-10T03:13:32;6.13;;;3.20;;
15833;SDS011;8017;50.812;4.934;2022-07-10T03:16:34;6.50;;;3.60;;
15833;SDS011;8017;50.812;4.934;2022-07-10T03:19:36;7.47;;;3.40;;
15833;SDS011;8017;50.812;4.934;2022-07-10T03:22:39;8.50;;;3.23;;
15833;SDS011;8017;50.812;4.934;2022-07-10T03:25:41;8.80;;;3.43;;
15833;SDS011;8017;50.812;4.934;2022-07-10T03:28:43;5.17;;;2.70;;
15833;SDS011;8017;50.812;4.934;2022-07-10T03:31:45;8.50;;;2.87;;
15833;SDS011;8017;50.812;4.934;2022-07-10T03:34:47;6.87;;;3.10;;
15833;SDS011;8017;50.812;4.934;2022-07-10T03:37:50;5.80;;;3.00;;
15833;SDS011;8017;50.812;4.934;2022-07-10T03:40:52;6.13;;;2.90;;
15833;SDS011;8017;50.812;4.934;2022-07-10T03:43:54;6.73;;;3.23;;
15833;SDS011;8017;50.812;4.934;2022-07-10T03:46:55;7.97;;;3.17;;
15833;SDS011;8017;50.812;4.934;2022-07-10T03:49:57;7.23;;;3.37;;
15833;SDS011;8017;50.812;4.934;2022-07-10T03:53:01;5.93;;;3.20;;
15833;SDS011;8017;50.812;4.934;2022-07-10T03:56:03;5.87;;;2.97;;
15833;SDS011;8017;50.812;4.934;2022-07-10T03:59:05;6.23;;;3.43;;
15833;SDS011;8017;50.812;4.934;2022-07-10T04:02:06;5.50;;;2.97;;
15833;SDS011;8017;50.812;4.934;2022-07-10T04:05:08;7.60;;;2.50;;
15833;SDS011;8017;50.812;4.934;2022-07-10T04:08:12;5.50;;;2.67;;
15833;SDS011;8017;50.812;4.934;2022-07-10T04:11:14;6.00;;;2.93;;
15833;SDS011;8017;50.812;4.934;2022-07-10T04:14:16;6.97;;;3.37;;
15833;SDS011;8017;50.812;4.934;2022-07-10T04:17:18;6.07;;;3.07;;
15833;SDS011;8017;50.812;4.934;2022-07-10T04:20:20;6.30;;;2.63;;
15833;SDS011;8017;50.812;4.934;2022-07-10T04:23:24;4.90;;;2.60;;
15833;SDS011;8017;50.812;4.934;2022-07-10T04:26:26;5.20;;;2.73;;
15833;SDS011;8017;50.812;4.934;2022-07-10T04:29:28;6.23;;;3.00;;
15833;SDS011;8017;50.812;4.934;2022-07-10T04:32:30;4.97;;;2.43;;
15833;SDS011;8017;50.812;4.934;2022-07-10T04:35:32;5.17;;;2.00;;
15833;SDS011;8017;50.812;4.934;2022-07-10T04:38:35;3.27;;;2.30;;
15833;SDS011;8017;50.812;4.934;2022-07-10T04:41:37;4.23;;;2.30;;
15833;SDS011;8017;50.812;4.934;2022-07-10T04:44:39;8.43;;;2.47;;
15833;SDS011;8017;50.812;4.934;2022-07-10T04:47:41;5.00;;;2.27;;
15833;SDS011;8017;50.812;4.934;2022-07-10T04:50:43;5.37;;;2.40;;
15833;SDS011;8017;50.812;4.934;2022-07-10T04:53:47;5.23;;;2.30;;
15833;SDS011;8017;50.812;4.934;2022-07-10T04:56:48;6.43;;;2.70;;
15833;SDS011;8017;50.812;4.934;2022-07-10T04:59:50;4.23;;;1.97;;
15833;SDS011;8017;50.812;4.934;2022-07-10T05:02:53;3.93;;;2.43;;
15833;SDS011;8017;50.812;4.934;2022-07-10T05:05:55;3.73;;;2.10;;
15833;SDS011;8017;50.812;4.934;2022-07-10T05:08:58;5.33;;;2.50;;
15833;SDS011;8017;50.812;4.934;2022-07-10T05:12:00;5.83;;;2.50;;
15833;SDS011;8017;50.812;4.934;2022-07-10T05:15:02;8.43;;;2.97;;
15833;SDS011;8017;50.812;4.934;2022-07-10T05:18:05;6.20;;;2.50;;
15833;SDS011;8017;50.812;4.934;2022-07-10T05:21:06;4.70;;;2.10;;
15833;SDS011;8017;50.812;4.934;2022-07-10T05:24:10;9.03;;;2.70;;
15833;SDS011;8017;50.812;4.934;2022-07-10T05:27:12;4.00;;;2.27;;
15833;SDS011;8017;50.812;4.934;2022-07-10T05:30:16;7.23;;;2.30;;
15833;SDS011;8017;50.812;4.934;2022-07-10T05:33:19;3.97;;;2.27;;
15833;SDS011;8017;50.812;4.934;2022-07-10T05:36:21;9.53;;;2.87;;
15833;SDS011;8017;50.812;4.934;2022-07-10T05:39:24;5.07;;;2.60;;
15833;SDS011;8017;50.812;4.934;2022-07-10T05:42:27;4.73;;;2.07;;
15833;SDS011;8017;50.812;4.934;2022-07-10T05:45:29;9.03;;;2.77;;
15833;SDS011;8017;50.812;4.934;2022-07-10T05:48:31;2.83;;;2.33;;
15833;SDS011;8017;50.812;4.934;2022-07-10T05:51:33;3.33;;;2.10;;
15833;SDS011;8017;50.812;4.934;2022-07-10T05:54:36;5.93;;;2.30;;
15833;SDS011;8017;50.812;4.934;2022-07-10T05:57:38;4.13;;;2.63;;
15833;SDS011;8017;50.812;4.934;2022-07-10T06:00:40;5.93;;;2.70;;
15833;SDS011;8017;50.812;4.934;2022-07-10T06:03:43;4.23;;;2.23;;
15833;SDS011;8017;50.812;4.934;2022-07-10T06:06:45;6.00;;;2.57;;
15833;SDS011;8017;50.812;4.934;2022-07-10T06:09:49;6.70;;;2.53;;
15833;SDS011;8017;50.812;4.934;2022-07-10T06:12:50;4.83;;;2.20;;
15833;SDS011;8017;50.812;4.934;2022-07-10T06:15:52;6.97;;;2.10;;
15833;SDS011;8017;50.812;4.934;2022-07-10T06:18:54;7.43;;;2.20;;
15833;SDS011;8017;50.812;4.934;2022-07-10T06:21:56;3.97;;;1.47;;
15833;SDS011;8017;50.812;4.934;2022-07-10T06:25:17;3.87;;;1.70;;
15833;SDS011;8017;50.812;4.934;2022-07-10T06:28:19;6.13;;;1.70;;
15833;SDS011;8017;50.812;4.934;2022-07-10T06:31:21;4.87;;;2.20;;
15833;SDS011;8017;50.812;4.934;2022-07-10T06:34:23;4.80;;;1.70;;
15833;SDS011;8017;50.812;4.934;2022-07-10T06:37:25;5.17;;;1.80;;
15833;SDS011;8017;50.812;4.934;2022-07-10T06:40:28;6.93;;;1.80;;
15833;SDS011;8017;50.812;4.934;2022-07-10T06:43:30;4.90;;;1.67;;
15833;SDS011;8017;50.812;4.934;2022-07-10T06:46:32;4.30;;;1.67;;
15833;SDS011;8017;50.812;4.934;2022-07-10T06:49:34;4.87;;;1.47;;
15833;SDS011;8017;50.812;4.934;2022-07-10T06:52:35;6.20;;;1.73;;
15833;SDS011;8017;50.812;4.934;2022-07-10T06:55:39;4.10;;;1.97;;
15833;SDS011;8017;50.812;4.934;2022-07-10T06:58:41;4.23;;;1.67;;
15833;SDS011;8017;50.812;4.934;2022-07-10T07:01:43;3.97;;;1.23;;
15833;SDS011;8017;50.812;4.934;2022-07-10T07:04:45;8.73;;;1.73;;
15833;SDS011;8017;50.812;4.934;2022-07-10T07:07:47;5.03;;;1.47;;
15833;SDS011;8017;50.812;4.934;2022-07-10T07:10:50;3.97;;;1.40;;
15833;SDS011;8017;50.812;4.934;2022-07-10T07:13:52;4.60;;;1.30;;
15833;SDS011;8017;50.812;4.934;2022-07-10T07:16:54;4.23;;;1.53;;
15833;SDS011;8017;50.812;4.934;2022-07-10T07:20:00;3.33;;;1.40;;
15833;SDS011;8017;50.812;4.934;2022-07-10T07:23:21;2.77;;;1.40;;
15833;SDS011;8017;50.812;4.934;2022-07-10T07:26:25;4.40;;;1.40;;
15833;SDS011;8017;50.812;4.934;2022-07-10T07:29:26;5.10;;;1.50;;
15833;SDS011;8017;50.812;4.934;2022-07-10T07:32:28;3.43;;;1.23;;
15833;SDS011;8017;50.812;4.934;2022-07-10T07:35:30;4.10;;;1.23;;
15833;SDS011;8017;50.812;4.934;2022-07-10T07:38:32;4.63;;;1.90;;
15833;SDS011;8017;50.812;4.934;2022-07-10T07:41:35;4.63;;;1.23;;
15833;SDS011;8017;50.812;4.934;2022-07-10T07:44:37;5.20;;;1.50;;
15833;SDS011;8017;50.812;4.934;2022-07-10T07:47:43;4.47;;;1.23;;
15833;SDS011;8017;50.812;4.934;2022-07-10T07:50:46;5.73;;;1.60;;
15833;SDS011;8017;50.812;4.934;2022-07-10T07:53:47;2.77;;;1.30;;
15833;SDS011;8017;50.812;4.934;2022-07-10T07:56:51;5.90;;;1.43;;
15833;SDS011;8017;50.812;4.934;2022-07-10T07:59:53;3.60;;;1.37;;
15833;SDS011;8017;50.812;4.934;2022-07-10T08:02:55;6.73;;;2.67;;
15833;SDS011;8017;50.812;4.934;2022-07-10T08:05:58;4.17;;;1.27;;
15833;SDS011;8017;50.812;4.934;2022-07-10T08:09:00;4.10;;;1.30;;
15833;SDS011;8017;50.812;4.934;2022-07-10T08:12:03;4.20;;;1.50;;
15833;SDS011;8017;50.812;4.934;2022-07-10T08:15:07;3.90;;;1.53;;
15833;SDS011;8017;50.812;4.934;2022-07-10T08:18:09;4.93;;;1.57;;
15833;SDS011;8017;50.812;4.934;2022-07-10T08:21:11;3.77;;;1.40;;
15833;SDS011;8017;50.812;4.934;2022-07-10T08:24:13;3.60;;;1.33;;
15833;SDS011;8017;50.812;4.934;2022-07-10T08:27:16;4.20;;;1.47;;
15833;SDS011;8017;50.812;4.934;2022-07-10T08:30:18;4.87;;;1.63;;
15833;SDS011;8017;50.812;4.934;2022-07-10T08:33:20;2.67;;;1.30;;
15833;SDS011;8017;50.812;4.934;2022-07-10T08:36:22;3.37;;;1.40;;
15833;SDS011;8017;50.812;4.934;2022-07-10T08:39:24;1.80;;;1.30;;
15833;SDS011;8017;50.812;4.934;2022-07-10T08:42:27;5.73;;;1.60;;
15833;SDS011;8017;50.812;4.934;2022-07-10T08:45:30;4.70;;;1.40;;
15833;SDS011;8017;50.812;4.934;2022-07-10T08:48:34;3.50;;;1.30;;
15833;SDS011;8017;50.812;4.934;2022-07-10T08:51:39;3.30;;;1.27;;
15833;SDS011;8017;50.812;4.934;2022-07-10T08:54:45;4.33;;;1.27;;
15833;SDS011;8017;50.812;4.934;2022-07-10T08:57:48;5.80;;;1.37;;
15833;SDS011;8017;50.812;4.934;2022-07-10T09:00:52;2.23;;;1.30;;
15833;SDS011;8017;50.812;4.934;2022-07-10T09:03:54;4.10;;;1.40;;
15833;SDS011;8017;50.812;4.934;2022-07-10T09:06:56;4.63;;;1.27;;
15833;SDS011;8017;50.812;4.934;2022-07-10T09:09:59;5.00;;;1.40;;
15833;SDS011;8017;50.812;4.934;2022-07-10T09:13:08;3.03;;;1.40;;
15833;SDS011;8017;50.812;4.934;2022-07-10T09:16:19;5.53;;;1.60;;
15833;SDS011;8017;50.812;4.934;2022-07-10T09:19:26;5.43;;;1.50;;
15833;SDS011;8017;50.812;4.934;2022-07-10T09:22:29;3.00;;;1.30;;
15833;SDS011;8017;50.812;4.934;2022-07-10T09:25:36;3.20;;;1.30;;
15833;SDS011;8017;50.812;4.934;2022-07-10T09:28:39;4.53;;;1.73;;
15833;SDS011;8017;50.812;4.934;2022-07-10T09:31:53;2.90;;;1.23;;
15833;SDS011;8017;50.812;4.934;2022-07-10T09:34:56;5.27;;;1.40;;
15833;SDS011;8017;50.812;4.934;2022-07-10T09:38:14;4.60;;;1.73;;
15833;SDS011;8017;50.812;4.934;2022-07-10T09:41:16;5.03;;;1.30;;
15833;SDS011;8017;50.812;4.934;2022-07-10T09:44:21;4.30;;;1.27;;
15833;SDS011;8017;50.812;4.934;2022-07-10T09:47:23;5.33;;;1.80;;
15833;SDS011;8017;50.812;4.934;2022-07-10T09:50:25;3.03;;;1.20;;
15833;SDS011;8017;50.812;4.934;2022-07-10T09:53:29;4.40;;;1.30;;
15833;SDS011;8017;50.812;4.934;2022-07-10T09:56:38;5.73;;;1.47;;
15833;SDS011;8017;50.812;4.934;2022-07-10T09:59:43;3.40;;;1.20;;
15833;SDS011;8017;50.812;4.934;2022-07-10T10:02:46;2.93;;;1.40;;
15833;SDS011;8017;50.812;4.934;2022-07-10T10:05:51;5.23;;;1.47;;
15833;SDS011;8017;50.812;4.934;2022-07-10T10:08:56;4.43;;;1.43;;
15833;SDS011;8017;50.812;4.934;2022-07-10T10:12:02;4.17;;;1.43;;
15833;SDS011;8017;50.812;4.934;2022-07-10T10:15:10;3.83;;;1.27;;
15833;SDS011;8017;50.812;4.934;2022-07-10T10:18:12;5.73;;;1.50;;
15833;SDS011;8017;50.812;4.934;2022-07-10T10:21:16;3.53;;;1.07;;
15833;SDS011;8017;50.812;4.934;2022-07-10T10:24:17;4.20;;;1.30;;
15833;SDS011;8017;50.812;4.934;2022-07-10T10:27:19;3.50;;;1.20;;
15833;SDS011;8017;50.812;4.934;2022-07-10T10:30:24;3.73;;;1.40;;
15833;SDS011;8017;50.812;4.934;2022-07-10T10:33:40;3.63;;;1.23;;
15833;SDS011;8017;50.812;4.934;2022-07-10T10:36:45;1.97;;;1.17;;
15833;SDS011;8017;50.812;4.934;2022-07-10T10:39:51;2.97;;;1.30;;
15833;SDS011;8017;50.812;4.934;2022-07-10T10:42:54;2.73;;;1.03;;
15833;SDS011;8017;50.812;4.934;2022-07-10T10:45:57;4.50;;;1.40;;
15833;SDS011;8017;50.812;4.934;2022-07-10T10:49:25;2.57;;;1.00;;
15833;SDS011;8017;50.812;4.934;2022-07-10T10:52:27;4.13;;;1.37;;
15833;SDS011;8017;50.812;4.934;2022-07-10T10:55:29;4.77;;;1.20;;
15833;SDS011;8017;50.812;4.934;2022-07-10T10:58:35;3.20;;;1.40;;
15833;SDS011;8017;50.812;4.934;2022-07-10T11:01:41;4.67;;;1.50;;
15833;SDS011;8017;50.812;4.934;2022-07-10T11:04:43;2.00;;;1.23;;
15833;SDS011;8017;50.812;4.934;2022-07-10T11:07:51;4.00;;;1.43;;
15833;SDS011;8017;50.812;4.934;2022-07-10T11:10:54;2.93;;;1.40;;
15833;SDS011;8017;50.812;4.934;2022-07-10T11:13:56;3.00;;;1.63;;
15833;SDS011;8017;50.812;4.934;2022-07-10T11:17:00;3.47;;;1.37;;
15833;SDS011;8017;50.812;4.934;2022-07-10T11:20:02;4.43;;;1.80;;
15833;SDS011;8017;50.812;4.934;2022-07-10T11:26:55;4.03;;;1.80;;
15833;SDS011;8017;50.812;4.934;2022-07-10T11:30:07;3.07;;;1.40;;
15833;SDS011;8017;50.812;4.934;2022-07-10T11:33:11;2.70;;;1.27;;
15833;SDS011;8017;50.812;4.934;2022-07-10T11:36:14;2.67;;;1.33;;
15833;SDS011;8017;50.812;4.934;2022-07-10T11:39:17;4.37;;;1.50;;
15833;SDS011;8017;50.812;4.934;2022-07-10T11:42:20;1.97;;;1.20;;
15833;SDS011;8017;50.812;4.934;2022-07-10T11:45:25;5.97;;;1.53;;
15833;SDS011;8017;50.812;4.934;2022-07-10T11:48:30;3.37;;;1.37;;
15833;SDS011;8017;50.812;4.934;2022-07-10T11:51:40;3.47;;;1.60;;
15833;SDS011;8017;50.812;4.934;2022-07-10T11:54:43;3.77;;;1.40;;
15833;SDS011;8017;50.812;4.934;2022-07-10T11:57:44;3.90;;;1.77;;
15833;SDS011;8017;50.812;4.934;2022-07-10T12:00:58;4.33;;;1.60;;
15833;SDS011;8017;50.812;4.934;2022-07-10T12:04:04;4.70;;;1.67;;
15833;SDS011;8017;50.812;4.934;2022-07-10T12:07:07;2.97;;;1.63;;
15833;SDS011;8017;50.812;4.934;2022-07-10T12:10:09;3.17;;;1.53;;
15833;SDS011;8017;50.812;4.934;2022-07-10T12:13:11;2.83;;;1.47;;
15833;SDS011;8017;50.812;4.934;2022-07-10T12:16:14;3.80;;;1.70;;
15833;SDS011;8017;50.812;4.934;2022-07-10T12:19:18;2.67;;;1.47;;
15833;SDS011;8017;50.812;4.934;2022-07-10T12:22:23;3.20;;;1.37;;
15833;SDS011;8017;50.812;4.934;2022-07-10T12:25:25;3.63;;;1.50;;
15833;SDS011;8017;50.812;4.934;2022-07-10T12:28:27;4.03;;;1.63;;
15833;SDS011;8017;50.812;4.934;2022-07-10T12:31:29;4.00;;;1.50;;
15833;SDS011;8017;50.812;4.934;2022-07-10T12:34:34;3.03;;;1.40;;
15833;SDS011;8017;50.812;4.934;2022-07-10T12:37:46;2.93;;;1.30;;
15833;SDS011;8017;50.812;4.934;2022-07-10T12:40:49;2.03;;;1.20;;
15833;SDS011;8017;50.812;4.934;2022-07-10T12:43:52;4.00;;;1.53;;
15833;SDS011;8017;50.812;4.934;2022-07-10T12:46:59;2.93;;;1.37;;
15833;SDS011;8017;50.812;4.934;2022-07-10T12:50:03;2.97;;;1.40;;
15833;SDS011;8017;50.812;4.934;2022-07-10T12:53:07;2.10;;;1.30;;
15833;SDS011;8017;50.812;4.934;2022-07-10T12:56:09;3.17;;;1.50;;
15833;SDS011;8017;50.812;4.934;2022-07-10T12:59:12;2.20;;;1.50;;
15833;SDS011;8017;50.812;4.934;2022-07-10T13:02:15;2.40;;;1.30;;
15833;SDS011;8017;50.812;4.934;2022-07-10T13:05:26;2.30;;;1.40;;
15833;SDS011;8017;50.812;4.934;2022-07-10T13:08:29;4.47;;;1.60;;
15833;SDS011;8017;50.812;4.934;2022-07-10T13:11:46;5.07;;;1.83;;
15833;SDS011;8017;50.812;4.934;2022-07-10T13:14:48;2.80;;;1.60;;
15833;SDS011;8017;50.812;4.934;2022-07-10T13:17:49;3.83;;;1.50;;
15833;SDS011;8017;50.812;4.934;2022-07-10T13:20:54;3.40;;;1.50;;
15833;SDS011;8017;50.812;4.934;2022-07-10T13:23:58;2.27;;;1.30;;
15833;SDS011;8017;50.812;4.934;2022-07-10T13:27:00;3.90;;;1.40;;
15833;SDS011;8017;50.812;4.934;2022-07-10T13:30:02;2.40;;;1.20;;
15833;SDS011;8017;50.812;4.934;2022-07-10T13:33:04;4.70;;;1.40;;
15833;SDS011;8017;50.812;4.934;2022-07-10T13:36:08;2.17;;;1.40;;
15833;SDS011;8017;50.812;4.934;2022-07-10T13:39:10;3.63;;;1.57;;
15833;SDS011;8017;50.812;4.934;2022-07-10T13:42:12;2.70;;;1.60;;
15833;SDS011;8017;50.812;4.934;2022-07-10T13:45:14;3.87;;;1.60;;
15833;SDS011;8017;50.812;4.934;2022-07-10T13:48:16;3.10;;;1.60;;
15833;SDS011;8017;50.812;4.934;2022-07-10T13:51:20;2.60;;;1.47;;
15833;SDS011;8017;50.812;4.934;2022-07-10T13:54:22;4.00;;;1.07;;
15833;SDS011;8017;50.812;4.934;2022-07-10T13:57:24;3.30;;;1.27;;
15833;SDS011;8017;50.812;4.934;2022-07-10T14:00:26;4.07;;;1.40;;
15833;SDS011;8017;50.812;4.934;2022-07-10T14:03:28;2.80;;;1.27;;
15833;SDS011;8017;50.812;4.934;2022-07-10T14:06:32;3.17;;;1.10;;
15833;SDS011;8017;50.812;4.934;2022-07-10T14:09:33;3.90;;;1.83;;
15833;SDS011;8017;50.812;4.934;2022-07-10T14:12:35;1.70;;;1.10;;
15833;SDS011;8017;50.812;4.934;2022-07-10T14:15:37;1.87;;;1.00;;
15833;SDS011;8017;50.812;4.934;2022-07-10T14:18:40;3.73;;;1.33;;
15833;SDS011;8017;50.812;4.934;2022-07-10T14:21:45;1.37;;;0.93;;
15833;SDS011;8017;50.812;4.934;2022-07-10T14:24:47;2.40;;;1.00;;
15833;SDS011;8017;50.812;4.934;2022-07-10T14:27:49;2.07;;;1.00;;
15833;SDS011;8017;50.812;4.934;2022-07-10T14:30:51;3.27;;;1.20;;
15833;SDS011;8017;50.812;4.934;2022-07-10T14:33:53;2.83;;;1.10;;
15833;SDS011;8017;50.812;4.934;2022-07-10T14:36:57;2.73;;;1.30;;
15833;SDS011;8017;50.812;4.934;2022-07-10T14:39:58;2.77;;;1.20;;
15833;SDS011;8017;50.812;4.934;2022-07-10T14:43:00;3.13;;;1.10;;
15833;SDS011;8017;50.812;4.934;2022-07-10T14:46:02;2.97;;;1.40;;
15833;SDS011;8017;50.812;4.934;2022-07-10T14:49:05;3.63;;;1.40;;
15833;SDS011;8017;50.812;4.934;2022-07-10T14:52:08;3.83;;;1.30;;
15833;SDS011;8017;50.812;4.934;2022-07-10T14:55:10;2.90;;;1.33;;
15833;SDS011;8017;50.812;4.934;2022-07-10T14:58:12;2.10;;;1.00;;
15833;SDS011;8017;50.812;4.934;2022-07-10T15:01:14;2.47;;;1.10;;
15833;SDS011;8017;50.812;4.934;2022-07-10T15:04:16;3.73;;;1.27;;
15833;SDS011;8017;50.812;4.934;2022-07-10T15:07:19;3.30;;;1.53;;
15833;SDS011;8017;50.812;4.934;2022-07-10T15:10:21;3.60;;;1.60;;
15833;SDS011;8017;50.812;4.934;2022-07-10T15:13:23;6.63;;;1.20;;
15833;SDS011;8017;50.812;4.934;2022-07-10T15:16:24;3.30;;;1.10;;
15833;SDS011;8017;50.812;4.934;2022-07-10T15:19:27;2.30;;;1.13;;
15833;SDS011;8017;50.812;4.934;2022-07-10T15:22:30;3.97;;;1.43;;
15833;SDS011;8017;50.812;4.934;2022-07-10T15:25:32;2.57;;;1.20;;
15833;SDS011;8017;50.812;4.934;2022-07-10T15:28:34;2.97;;;1.00;;
15833;SDS011;8017;50.812;4.934;2022-07-10T15:31:37;3.67;;;1.07;;
15833;SDS011;8017;50.812;4.934;2022-07-10T15:34:39;3.00;;;1.20;;
15833;SDS011;8017;50.812;4.934;2022-07-10T15:37:42;4.33;;;1.60;;
15833;SDS011;8017;50.812;4.934;2022-07-10T15:40:44;4.17;;;1.10;;
15833;SDS011;8017;50.812;4.934;2022-07-10T15:43:46;2.90;;;1.10;;
15833;SDS011;8017;50.812;4.934;2022-07-10T15:46:48;2.67;;;1.03;;
15833;SDS011;8017;50.812;4.934;2022-07-10T15:49:50;1.33;;;0.80;;
15833;SDS011;8017;50.812;4.934;2022-07-10T15:52:53;2.47;;;1.20;;
15833;SDS011;8017;50.812;4.934;2022-07-10T15:55:55;4.27;;;1.27;;
15833;SDS011;8017;50.812;4.934;2022-07-10T15:58:57;1.90;;;1.17;;
15833;SDS011;8017;50.812;4.934;2022-07-10T16:01:59;2.20;;;1.00;;
15833;SDS011;8017;50.812;4.934;2022-07-10T16:05:01;2.70;;;1.30;;
15833;SDS011;8017;50.812;4.934;2022-07-10T16:08:05;2.20;;;1.07;;
15833;SDS011;8017;50.812;4.934;2022-07-10T16:11:07;4.17;;;1.27;;
15833;SDS011;8017;50.812;4.934;2022-07-10T16:14:09;2.53;;;1.10;;
15833;SDS011;8017;50.812;4.934;2022-07-10T16:17:11;2.10;;;0.93;;
15833;SDS011;8017;50.812;4.934;2022-07-10T16:20:13;3.63;;;1.27;;
15833;SDS011;8017;50.812;4.934;2022-07-10T16:23:17;3.43;;;1.20;;
15833;SDS011;8017;50.812;4.934;2022-07-10T16:26:18;1.87;;;1.03;;
15833;SDS011;8017;50.812;4.934;2022-07-10T16:29:20;2.67;;;1.13;;
15833;SDS011;8017;50.812;4.934;2022-07-10T16:32:25;2.10;;;1.10;;
15833;SDS011;8017;50.812;4.934;2022-07-10T16:35:27;3.40;;;1.30;;
15833;SDS011;8017;50.812;4.934;2022-07-10T16:38:30;2.57;;;1.17;;
15833;SDS011;8017;50.812;4.934;2022-07-10T16:41:32;3.67;;;1.20;;
15833;SDS011;8017;50.812;4.934;2022-07-10T16:44:34;1.87;;;0.90;;
15833;SDS011;8017;50.812;4.934;2022-07-10T16:47:36;2.23;;;0.97;;
15833;SDS011;8017;50.812;4.934;2022-07-10T16:50:38;1.43;;;1.13;;
15833;SDS011;8017;50.812;4.934;2022-07-10T16:53:41;2.13;;;0.90;;
15833;SDS011;8017;50.812;4.934;2022-07-10T16:56:43;4.13;;;1.23;;
15833;SDS011;8017;50.812;4.934;2022-07-10T16:59:46;3.33;;;1.10;;
15833;SDS011;8017;50.812;4.934;2022-07-10T17:02:48;2.80;;;0.80;;
15833;SDS011;8017;50.812;4.934;2022-07-10T17:05:50;2.03;;;1.00;;
15833;SDS011;8017;50.812;4.934;2022-07-10T17:08:53;2.63;;;1.23;;
15833;SDS011;8017;50.812;4.934;2022-07-10T17:11:55;3.90;;;1.10;;
15833;SDS011;8017;50.812;4.934;2022-07-10T17:14:57;2.90;;;0.90;;
15833;SDS011;8017;50.812;4.934;2022-07-10T17:17:59;3.25;;;1.02;;
15833;SDS011;8017;50.812;4.934;2022-07-10T17:21:01;4.30;;;1.00;;
15833;SDS011;8017;50.812;4.934;2022-07-10T17:24:05;1.73;;;0.90;;
15833;SDS011;8017;50.812;4.934;2022-07-10T17:27:07;2.13;;;0.90;;
15833;SDS011;8017;50.812;4.934;2022-07-10T17:30:09;0.90;;;0.80;;
15833;SDS011;8017;50.812;4.934;2022-07-10T17:33:11;1.65;;;0.90;;
15833;SDS011;8017;50.812;4.934;2022-07-10T17:36:13;3.85;;;1.38;;
15833;SDS011;8017;50.812;4.934;2022-07-10T17:39:16;3.13;;;1.00;;
15833;SDS011;8017;50.812;4.934;2022-07-10T17:42:18;3.17;;;1.17;;
15833;SDS011;8017;50.812;4.934;2022-07-10T17:45:20;1.08;;;0.90;;
15833;SDS011;8017;50.812;4.934;2022-07-10T17:48:23;2.30;;;1.00;;
15833;SDS011;8017;50.812;4.934;2022-07-10T17:51:24;1.45;;;1.00;;
15833;SDS011;8017;50.812;4.934;2022-07-10T17:54:28;4.57;;;1.20;;
15833;SDS011;8017;50.812;4.934;2022-07-10T17:57:30;3.33;;;1.05;;
15833;SDS011;8017;50.812;4.934;2022-07-10T18:00:32;2.33;;;0.77;;
15833;SDS011;8017;50.812;4.934;2022-07-10T18:03:34;2.13;;;0.90;;
15833;SDS011;8017;50.812;4.934;2022-07-10T18:06:36;3.97;;;0.98;;
15833;SDS011;8017;50.812;4.934;2022-07-10T18:09:39;3.50;;;1.13;;
15833;SDS011;8017;50.812;4.934;2022-07-10T18:12:41;1.77;;;1.10;;
15833;SDS011;8017;50.812;4.934;2022-07-10T18:15:43;1.83;;;0.82;;
15833;SDS011;8017;50.812;4.934;2022-07-10T18:18:46;3.15;;;1.00;;
15833;SDS011;8017;50.812;4.934;2022-07-10T18:21:49;2.90;;;1.00;;
15833;SDS011;8017;50.812;4.934;2022-07-10T18:24:52;2.95;;;1.40;;
15833;SDS011;8017;50.812;4.934;2022-07-10T18:27:54;4.25;;;1.15;;
15833;SDS011;8017;50.812;4.934;2022-07-10T18:30:56;13.48;;;1.92;;
15833;SDS011;8017;50.812;4.934;2022-07-10T18:33:58;4.78;;;1.20;;
15833;SDS011;8017;50.812;4.934;2022-07-10T18:37:18;1.60;;;0.77;;
15833;SDS011;8017;50.812;4.934;2022-07-10T18:40:21;1.90;;;1.05;;
15833;SDS011;8017;50.812;4.934;2022-07-10T18:43:24;3.63;;;1.10;;